createdAt,value
2022-10-21T00:04:06.115Z,80.82
2022-10-21T00:09:07.558Z,81.55
2022-10-21T00:14:08.958Z,81.44
2022-10-21T00:19:10.362Z,82.56
2022-10-21T00:24:11.765Z,83.36
2022-10-21T00:29:13.193Z,83.20
2022-10-21T00:34:14.666Z,83.14
2022-10-21T00:39:16.397Z,82.51
2022-10-21T00:44:17.813Z,82.13
2022-10-21T00:49:42.267Z,81.82
2022-10-21T00:54:46.243Z,81.51
2022-10-21T00:59:53.666Z,81.09
2022-10-21T01:04:59.298Z,80.99
2022-10-21T01:10:00.706Z,81.13
2022-10-21T01:15:39.960Z,81.63
2022-10-21T01:21:00.071Z,81.68
2022-10-21T01:26:19.404Z,82.42
2022-10-21T01:31:29.953Z,83.13
2022-10-21T01:37:10.345Z,82.96
2022-10-21T01:42:30.610Z,82.49
2022-10-21T01:47:36.383Z,81.53
2022-10-21T01:52:41.310Z,81.59
2022-10-21T01:57:49.201Z,81.23
2022-10-21T02:02:50.725Z,81.43
2022-10-21T02:07:52.140Z,82.24
2022-10-21T02:12:57.306Z,82.55
2022-10-21T02:18:06.848Z,82.95
2022-10-21T02:23:13.305Z,83.37
2022-10-21T02:28:15.022Z,82.92
2022-10-21T02:33:27.620Z,81.96
2022-10-21T02:38:37.456Z,82.35
2022-10-21T02:43:43.743Z,82.82
2022-10-21T02:48:47.855Z,82.14
2022-10-21T02:53:49.246Z,81.96
2022-10-21T02:58:50.647Z,82.08
2022-10-21T03:03:52.016Z,82.89
2022-10-21T03:08:53.613Z,83.27
2022-10-21T03:13:55.136Z,83.69
2022-10-21T03:18:56.579Z,83.70
2022-10-21T03:23:57.986Z,84.11
2022-10-21T03:28:59.398Z,83.70
2022-10-21T03:34:00.773Z,82.88
2022-10-21T03:39:02.177Z,82.05
2022-10-21T03:44:03.762Z,82.56
2022-10-21T03:49:08.555Z,83.10
2022-10-21T03:54:13.471Z,83.12
2022-10-21T03:59:15.026Z,83.24
2022-10-21T04:04:16.479Z,83.93
2022-10-21T04:09:18.022Z,83.82
2022-10-21T04:14:19.498Z,83.69
2022-10-21T04:19:21.128Z,83.78
2022-10-21T04:24:22.551Z,84.34
2022-10-21T04:29:23.978Z,83.91
2022-10-21T04:34:25.377Z,83.63
2022-10-21T04:39:26.820Z,83.15
2022-10-21T04:44:28.225Z,83.49
2022-10-21T04:49:29.597Z,83.21
2022-10-21T04:54:31.053Z,83.31
2022-10-21T04:59:33.439Z,83.10
2022-10-21T05:04:34.857Z,82.88
2022-10-21T05:09:36.289Z,83.21
2022-10-21T05:14:37.681Z,83.33
2022-10-21T05:19:39.050Z,83.35
2022-10-21T05:24:40.443Z,82.81
2022-10-21T05:29:41.850Z,83.00
2022-10-21T05:34:43.242Z,83.01
2022-10-21T05:39:44.935Z,82.97
2022-10-21T05:44:46.436Z,82.68
2022-10-21T05:49:47.821Z,82.85
2022-10-21T05:54:49.261Z,82.83
2022-10-21T05:59:50.652Z,83.11
2022-10-21T06:04:52.047Z,83.25
2022-10-21T06:09:54.868Z,82.83
2022-10-21T06:14:56.717Z,83.33
2022-10-21T06:19:58.126Z,83.43
2022-10-21T06:24:59.525Z,83.57
2022-10-21T06:30:00.946Z,83.83
2022-10-21T06:35:02.445Z,83.46
2022-10-21T06:40:04.168Z,83.35
2022-10-21T06:45:06.130Z,82.62
2022-10-21T06:50:07.994Z,82.17
2022-10-21T06:55:09.810Z,81.67
2022-10-21T07:00:12.500Z,82.46
2022-10-21T07:05:13.980Z,83.19
2022-10-21T07:10:15.523Z,82.53
2022-10-21T07:15:16.991Z,81.91
2022-10-21T07:20:18.449Z,81.90
2022-10-21T07:25:20.161Z,82.53
2022-10-21T07:30:21.655Z,83.24
2022-10-21T07:35:23.669Z,83.63
2022-10-21T07:40:25.086Z,83.65
2022-10-21T07:45:26.513Z,83.61
2022-10-21T07:50:28.014Z,84.30
2022-10-21T07:55:29.892Z,84.62
2022-10-21T08:00:31.324Z,84.57
2022-10-21T08:05:32.709Z,83.80
2022-10-21T08:10:39.621Z,82.40
2022-10-21T08:15:45.123Z,82.65
2022-10-21T08:20:47.514Z,82.32
2022-10-21T08:25:54.107Z,81.41
2022-10-21T08:31:08.974Z,81.47
2022-10-21T08:36:20.471Z,82.70
2022-10-21T08:41:30.957Z,82.98
2022-10-21T08:46:37.716Z,82.38
2022-10-21T08:51:49.507Z,79.09
2022-10-21T08:56:55.907Z,77.22
2022-10-21T09:01:57.251Z,75.29
2022-10-21T09:07:25.454Z,77.82
2022-10-21T09:12:52.157Z,78.35
2022-10-21T09:18:22.769Z,77.58
2022-10-21T09:23:45.289Z,77.88
2022-10-21T09:28:48.034Z,77.41
2022-10-21T09:34:02.425Z,77.12
2022-10-21T09:39:12.690Z,77.14
2022-10-21T09:44:18.390Z,76.22
2022-10-21T09:50:01.721Z,75.94
2022-10-21T09:54:52.921Z,74.21
2022-10-21T10:00:02.239Z,74.95
2022-10-21T10:05:41.778Z,74.91
2022-10-21T10:10:43.151Z,75.30
2022-10-21T10:15:44.619Z,75.07
2022-10-21T10:20:46.008Z,74.43
2022-10-21T10:25:50.930Z,74.84
2022-10-21T10:30:55.616Z,74.11
2022-10-21T10:36:05.211Z,75.71
2022-10-21T10:41:14.313Z,75.56
2022-10-21T10:46:24.642Z,75.88
2022-10-21T10:51:32.620Z,75.14
2022-10-21T10:56:43.182Z,76.44
2022-10-21T11:02:07.864Z,78.19
2022-10-21T11:07:28.959Z,76.94
2022-10-21T11:12:30.799Z,77.89
2022-10-21T11:17:40.663Z,77.81
2022-10-21T11:23:01.800Z,77.75
2022-10-21T11:28:34.136Z,79.02
2022-10-21T11:34:18.250Z,79.32
2022-10-21T11:39:31.915Z,78.62
2022-10-21T11:44:46.234Z,77.10
2022-10-21T11:50:02.559Z,75.76
2022-10-21T11:55:34.335Z,76.99
2022-10-21T12:00:48.703Z,77.04
2022-10-21T12:06:04.698Z,77.92
2022-10-21T12:11:12.566Z,77.92
2022-10-21T12:16:20.408Z,77.57
2022-10-21T12:21:26.344Z,77.82
2022-10-21T12:26:40.489Z,77.60
2022-10-21T12:32:00.881Z,76.39
2022-10-21T12:37:02.328Z,74.16
2022-10-21T12:42:13.405Z,72.95
2022-10-21T12:47:24.895Z,72.50
2022-10-21T12:52:26.304Z,71.31
2022-10-21T12:57:34.723Z,72.16
2022-10-21T13:02:55.760Z,73.26
2022-10-21T13:08:44.365Z,73.34
2022-10-21T13:13:47.629Z,72.98
2022-10-21T13:18:58.039Z,72.88
2022-10-21T13:24:11.777Z,73.00
2022-10-21T13:29:16.197Z,71.75
2022-10-21T13:34:27.806Z,72.95
2022-10-21T13:39:33.564Z,73.81
2022-10-21T13:44:40.260Z,74.28
2022-10-21T13:49:41.637Z,74.47
2022-10-21T14:00:04.789Z,73.32
2022-10-21T14:05:25.924Z,74.11
2022-10-21T14:10:29.398Z,73.75
2022-10-21T14:15:38.125Z,74.14
2022-10-21T14:20:40.805Z,75.70
2022-10-21T14:25:42.330Z,75.66
2022-10-21T14:30:43.819Z,75.06
2022-10-21T14:36:04.512Z,74.91
2022-10-21T14:41:12.882Z,75.00
2022-10-21T14:46:14.338Z,74.36
2022-10-21T14:51:20.496Z,73.99
2022-10-21T14:56:33.759Z,74.04
2022-10-21T15:01:35.320Z,75.20
2022-10-21T15:06:36.761Z,75.86
2022-10-21T15:11:46.372Z,77.67
2022-10-21T15:17:03.334Z,77.25
2022-10-21T15:22:05.886Z,77.71
2022-10-21T15:27:15.860Z,78.66
2022-10-21T15:32:17.308Z,79.27
2022-10-21T15:37:19.686Z,79.54
2022-10-21T15:42:21.098Z,81.19
2022-10-21T15:47:22.498Z,81.10
2022-10-21T15:52:23.907Z,80.96
2022-10-21T15:57:25.309Z,80.67
2022-10-21T16:02:26.722Z,80.86
2022-10-21T16:07:29.067Z,80.28
2022-10-21T16:12:30.460Z,80.65
2022-10-21T16:17:31.878Z,81.71
2022-10-21T16:22:33.249Z,82.36
2022-10-21T16:27:51.035Z,82.74
2022-10-21T16:32:56.354Z,82.85
2022-10-21T16:37:57.821Z,83.42
2022-10-21T16:42:59.219Z,82.88
2022-10-21T16:48:03.250Z,83.24
2022-10-21T16:53:05.727Z,83.62
2022-10-21T16:58:07.230Z,84.11
2022-10-21T17:03:11.613Z,83.62
2022-10-21T17:08:13.038Z,83.65
2022-10-21T17:13:14.473Z,83.95
2022-10-21T17:18:16.025Z,83.97
2022-10-21T17:23:17.475Z,83.83
2022-10-21T17:28:18.870Z,83.38
2022-10-21T17:33:20.259Z,83.24
2022-10-21T17:38:21.698Z,83.14
2022-10-21T17:43:23.104Z,83.08
2022-10-21T17:48:24.526Z,83.34
2022-10-21T17:53:27.659Z,83.79
2022-10-21T17:58:29.789Z,84.19
2022-10-21T18:03:31.203Z,83.81
2022-10-21T18:08:32.750Z,83.87
2022-10-21T18:13:34.545Z,83.72
2022-10-21T18:18:36.895Z,84.09
2022-10-21T18:23:40.649Z,84.13
2022-10-21T18:28:42.114Z,84.22
2022-10-21T18:33:43.495Z,84.79
2022-10-21T18:38:45.082Z,84.66
2022-10-21T18:43:53.202Z,85.00
2022-10-21T18:48:54.795Z,84.77
2022-10-21T18:53:56.518Z,84.63
2022-10-21T18:58:57.931Z,84.60
2022-10-21T19:03:59.376Z,84.62
2022-10-21T19:09:02.144Z,85.10
2022-10-21T19:14:03.618Z,85.65
2022-10-21T19:19:05.459Z,86.02
2022-10-21T19:24:07.520Z,85.98
2022-10-21T19:29:12.421Z,86.35
2022-10-21T19:34:21.470Z,86.14
2022-10-21T19:39:22.901Z,85.64
2022-10-21T19:44:24.299Z,85.33
2022-10-21T19:49:25.683Z,85.84
2022-10-21T19:54:27.080Z,86.12
2022-10-21T19:59:28.485Z,86.76
2022-10-21T20:04:32.548Z,86.96
2022-10-21T20:09:38.843Z,86.66
2022-10-21T20:14:40.503Z,86.41
2022-10-21T20:19:41.893Z,87.09
2022-10-21T20:24:46.263Z,86.79
2022-10-21T20:29:47.988Z,85.50
2022-10-21T20:34:49.387Z,86.63
2022-10-21T20:39:50.860Z,86.93
2022-10-21T20:44:52.269Z,86.82
2022-10-21T20:49:53.744Z,87.31
2022-10-21T20:54:55.137Z,87.19
2022-10-21T20:59:56.508Z,86.98
2022-10-21T21:04:57.890Z,86.84
2022-10-21T21:10:02.839Z,87.27
2022-10-21T21:15:05.321Z,87.27
2022-10-21T21:20:07.534Z,87.48
2022-10-21T21:25:09.716Z,87.53
2022-10-21T21:30:11.531Z,87.32
2022-10-21T21:35:12.960Z,87.09
2022-10-21T21:40:14.330Z,87.16
2022-10-21T21:45:15.695Z,86.68
2022-10-21T21:50:17.101Z,86.64
2022-10-21T21:55:18.487Z,86.44
2022-10-21T22:00:19.850Z,86.71
2022-10-21T22:05:26.146Z,86.76
2022-10-21T22:10:29.316Z,87.51
2022-10-21T22:15:46.917Z,87.54
2022-10-21T22:26:14.052Z,86.45
2022-10-21T22:31:17.828Z,86.83
2022-10-21T22:36:19.243Z,86.72
2022-10-21T22:46:44.357Z,86.33
2022-10-21T22:51:45.753Z,87.08
2022-10-21T22:56:47.683Z,86.84
2022-10-21T23:01:49.083Z,86.65
2022-10-21T23:06:50.490Z,87.59
2022-10-21T23:11:51.860Z,87.43
2022-10-21T23:16:53.288Z,87.09
2022-10-21T23:21:54.694Z,87.25
2022-10-21T23:26:59.105Z,87.68
2022-10-21T23:32:03.494Z,87.86
2022-10-21T23:37:04.897Z,87.89
2022-10-21T23:42:06.277Z,87.44
2022-10-21T23:47:07.661Z,87.77
2022-10-21T23:52:09.205Z,84.68
2022-10-21T23:57:10.599Z,81.78
